Time;durP1;ratioP1;P1;durP2;ratioP2;P2;SDS_P1;SDS_P2;PMS_P1;PMS_P2;Temp;Humidity;BMP_temperature;BMP_pressure;BME280_temperature;BME280_humidity;BME280_pressure;Samples;Min_cycle;Max_cycle;Signal;HPM_P1;HPM_P2
2021/03/07 00:00:11;;;;;;;13.95;8.15;;;;;;;-2.07;73.71;99750.58;1712715;83;21047;-59
2021/03/07 00:02:39;;;;;;;14.28;8.13;;;;;;;-2.06;73.83;99744.42;1726217;83;21211;-58
2021/03/07 00:05:08;;;;;;;16.87;9.08;;;;;;;-2.07;73.97;99748.42;1715495;83;21197;-60
2021/03/07 00:07:36;;;;;;;20.80;9.33;;;;;;;-2.08;74.16;99733.24;1716708;83;21532;-59
2021/03/07 00:10:09;;;;;;;19.35;9.18;;;;;;;-2.09;74.34;99736.80;1727070;83;20956;-58
2021/03/07 00:12:37;;;;;;;13.48;8.70;;;;;;;-2.10;74.54;99732.95;1726974;83;21059;-60
2021/03/07 00:15:06;;;;;;;15.63;9.10;;;;;;;-2.11;74.67;99726.89;1709857;83;21462;-62
2021/03/07 00:17:34;;;;;;;13.00;8.60;;;;;;;-2.09;74.76;99725.52;1712201;83;21205;-57
2021/03/07 00:20:03;;;;;;;13.60;8.15;;;;;;;-2.08;74.86;99725.88;1725891;83;21158;-58
2021/03/07 00:22:31;;;;;;;12.25;8.08;;;;;;;-2.08;75.03;99721.97;1726964;83;21086;-59
2021/03/07 00:24:58;;;;;;;13.72;8.98;;;;;;;-2.08;75.11;99716.75;1703317;82;21057;-57
2021/03/07 00:27:26;;;;;;;17.50;10.20;;;;;;;-2.08;75.17;99708.48;1708128;83;21234;-59
2021/03/07 00:29:53;;;;;;;17.55;10.13;;;;;;;-2.06;75.20;99697.98;1710145;83;20937;-60
2021/03/07 00:32:21;;;;;;;12.82;8.53;;;;;;;-2.05;75.23;99696.58;1687409;83;21153;-58
2021/03/07 00:34:50;;;;;;;14.00;9.05;;;;;;;-2.03;75.31;99693.88;1726973;83;21023;-60
2021/03/07 00:37:17;;;;;;;12.18;9.05;;;;;;;-2.04;75.34;99688.30;1701204;83;21130;-61
2021/03/07 00:39:45;;;;;;;14.40;9.05;;;;;;;-2.02;75.35;99686.44;1726214;83;21434;-60
2021/03/07 00:42:12;;;;;;;13.22;8.70;;;;;;;-2.02;75.39;99685.98;1696749;83;21031;-60
2021/03/07 00:44:40;;;;;;;19.20;11.12;;;;;;;-1.99;75.46;99691.03;1727025;83;21071;-58
2021/03/07 00:47:08;;;;;;;18.77;10.90;;;;;;;-1.98;75.46;99686.63;1709994;83;21162;-60
2021/03/07 00:49:35;;;;;;;17.42;9.80;;;;;;;-1.98;75.48;99681.41;1714599;82;21087;-58
2021/03/07 00:52:03;;;;;;;14.75;9.48;;;;;;;-1.97;75.52;99668.77;1718491;83;21471;-60
2021/03/07 00:54:31;;;;;;;16.40;9.65;;;;;;;-1.98;75.60;99662.70;1721782;83;21225;-58
2021/03/07 00:56:58;;;;;;;13.50;9.28;;;;;;;-1.99;75.67;99661.50;1721469;83;21106;-60
2021/03/07 00:59:26;;;;;;;16.37;8.83;;;;;;;-2.01;75.72;99648.53;1724527;83;21197;-59
2021/03/07 01:01:53;;;;;;;14.68;10.48;;;;;;;-2.01;75.82;99642.50;1726952;83;21134;-60
2021/03/07 01:04:21;;;;;;;13.45;9.18;;;;;;;-2.02;75.89;99635.14;1705702;82;21431;-60
2021/03/07 01:06:50;;;;;;;14.30;9.20;;;;;;;-2.01;75.93;99630.77;1705944;82;21052;-58
2021/03/07 01:09:18;;;;;;;15.10;10.28;;;;;;;-2.00;75.96;99628.52;1713837;83;21102;-59
2021/03/07 01:11:48;;;;;;;16.40;10.80;;;;;;;-1.99;75.98;99618.48;1713341;82;21027;-60
2021/03/07 01:14:15;;;;;;;16.17;9.80;;;;;;;-1.99;76.07;99617.18;1719159;83;21134;-60
2021/03/07 01:16:44;;;;;;;16.05;10.15;;;;;;;-2.00;76.15;99615.48;1691043;83;21410;-58
2021/03/07 01:19:12;;;;;;;12.78;9.93;;;;;;;-2.00;76.25;99608.97;1696036;83;21093;-59
2021/03/07 01:21:40;;;;;;;13.65;9.78;;;;;;;-2.01;76.34;99606.81;1716335;83;20967;-59
2021/03/07 01:24:09;;;;;;;16.95;10.43;;;;;;;-2.01;76.38;99606.00;1727008;83;21146;-59
2021/03/07 01:26:36;;;;;;;15.55;10.72;;;;;;;-2.03;76.47;99602.16;1725514;83;21225;-59
2021/03/07 01:29:04;;;;;;;17.23;10.60;;;;;;;-2.01;76.53;99603.40;1717908;82;21254;-58
2021/03/07 01:31:32;;;;;;;18.77;10.60;;;;;;;-2.02;76.57;99597.80;1723919;83;20952;-58
2021/03/07 01:34:02;;;;;;;15.38;10.32;;;;;;;-2.02;76.62;99588.67;1717797;83;21078;-57
2021/03/07 01:36:30;;;;;;;13.43;9.53;;;;;;;-2.03;76.63;99589.59;1713816;83;21145;-58
2021/03/07 01:38:58;;;;;;;16.30;10.68;;;;;;;-2.01;76.62;99585.15;1719327;83;21130;-58
2021/03/07 01:41:25;;;;;;;14.93;9.68;;;;;;;-2.00;76.58;99586.80;1701211;83;21493;-60
2021/03/07 01:43:53;;;;;;;15.58;11.38;;;;;;;-2.00;76.53;99572.01;1722472;83;21102;-59
2021/03/07 01:46:20;;;;;;;16.67;10.38;;;;;;;-1.97;76.46;99577.05;1726921;82;21027;-58
2021/03/07 01:48:49;;;;;;;14.83;10.13;;;;;;;-1.95;76.35;99568.67;1724686;83;21186;-61
2021/03/07 01:51:16;;;;;;;15.05;10.80;;;;;;;-1.93;76.20;99558.16;1722415;83;21635;-58
2021/03/07 01:53:44;;;;;;;15.10;9.83;;;;;;;-1.91;76.05;99555.00;1726818;83;21271;-60
2021/03/07 01:56:12;;;;;;;16.10;10.28;;;;;;;-1.88;75.84;99545.69;1663760;83;21150;-58
2021/03/07 01:58:41;;;;;;;17.80;11.55;;;;;;;-1.84;75.57;99534.59;1717560;81;20937;-58
2021/03/07 02:01:09;;;;;;;16.07;10.70;;;;;;;-1.81;75.35;99536.56;1717903;83;21129;-59
2021/03/07 02:03:38;;;;;;;16.95;10.80;;;;;;;-1.76;75.17;99544.11;1708180;83;21215;-58
2021/03/07 02:06:07;;;;;;;15.48;10.70;;;;;;;-1.74;75.03;99533.95;1679077;84;21393;-60
2021/03/07 02:08:34;;;;;;;23.42;12.98;;;;;;;-1.71;74.97;99532.47;1712160;83;21228;-57
2021/03/07 02:11:02;;;;;;;29.85;13.55;;;;;;;-1.69;74.88;99525.84;1726353;82;20987;-59
2021/03/07 02:13:35;;;;;;;23.40;11.45;;;;;;;-1.67;74.87;99524.00;1701214;83;21153;-59
2021/03/07 02:16:06;;;;;;;17.90;11.83;;;;;;;-1.67;74.83;99521.39;1717887;83;21070;-58
2021/03/07 02:18:38;;;;;;;18.02;11.30;;;;;;;-1.66;74.86;99516.53;1709656;83;21422;-57
2021/03/07 02:21:22;;;;;;;14.78;10.70;;;;;;;-1.66;74.93;99523.90;1720778;82;21185;-59
2021/03/07 02:24:03;;;;;;;17.67;11.65;;;;;;;-1.66;75.02;99515.23;1695387;83;21589;-58
2021/03/07 02:26:49;;;;;;;15.98;10.48;;;;;;;-1.67;75.11;99515.72;1705325;83;21118;-59
2021/03/07 02:29:19;;;;;;;17.93;11.37;;;;;;;-1.68;75.31;99514.49;1704392;83;21224;-59
2021/03/07 02:31:52;;;;;;;16.37;11.97;;;;;;;-1.71;75.41;99510.76;1690934;82;21353;-58
2021/03/07 02:34:55;;;;;;;18.92;12.03;;;;;;;-1.73;75.50;99499.59;1713437;83;21553;-60
2021/03/07 02:37:23;;;;;;;16.27;11.12;;;;;;;-1.74;75.59;99505.27;1726629;83;20940;-58
2021/03/07 02:39:51;;;;;;;16.55;10.95;;;;;;;-1.75;75.61;99508.82;1726756;82;21011;-57
2021/03/07 02:42:23;;;;;;;17.15;10.05;;;;;;;-1.74;75.63;99508.33;1718236;83;21179;-61
2021/03/07 02:45:00;;;;;;;19.50;11.60;;;;;;;-1.73;75.57;99502.20;1710223;83;22290;-59
2021/03/07 02:47:30;;;;;;;26.90;14.45;;;;;;;-1.74;75.48;99498.74;1702877;83;21141;-60
2021/03/07 02:50:01;;;;;;;36.90;16.48;;;;;;;-1.72;75.42;99492.95;1726875;82;21146;-59
2021/03/07 02:52:29;;;;;;;19.32;12.33;;;;;;;-1.69;75.31;99494.55;1702388;82;21066;-60
2021/03/07 02:54:56;;;;;;;20.90;11.43;;;;;;;-1.67;75.15;99488.33;1695990;83;21149;-60
2021/03/07 02:57:25;;;;;;;16.87;10.95;;;;;;;-1.64;74.99;99486.81;1721722;83;21373;-60
2021/03/07 02:59:52;;;;;;;24.12;11.35;;;;;;;-1.61;74.77;99490.55;1726899;83;21577;-59
2021/03/07 03:02:21;;;;;;;17.80;10.38;;;;;;;-1.61;74.61;99480.56;1726902;83;21007;-59
2021/03/07 03:04:49;;;;;;;17.45;11.10;;;;;;;-1.60;74.50;99481.80;1723542;82;21137;-59
2021/03/07 03:07:16;;;;;;;15.93;11.28;;;;;;;-1.58;74.43;99479.08;1725495;83;21079;-57
2021/03/07 03:09:46;;;;;;;23.77;11.83;;;;;;;-1.55;74.29;99465.84;1726896;82;21356;-58
2021/03/07 03:12:13;;;;;;;15.80;10.53;;;;;;;-1.54;74.19;99476.18;1690997;83;21162;-58
2021/03/07 03:14:41;;;;;;;17.73;10.75;;;;;;;-1.51;74.08;99462.14;1715693;82;21003;-60
2021/03/07 03:17:09;;;;;;;17.02;11.25;;;;;;;-1.52;74.01;99468.28;1720062;83;21040;-57
2021/03/07 03:19:37;;;;;;;16.35;11.78;;;;;;;-1.51;73.92;99466.05;1726980;82;21071;-58
2021/03/07 03:22:04;;;;;;;15.13;10.28;;;;;;;-1.50;73.88;99459.87;1726892;83;21374;-59
2021/03/07 03:24:33;;;;;;;16.32;11.25;;;;;;;-1.49;73.86;99451.97;1704058;83;21027;-59
2021/03/07 03:27:01;;;;;;;19.42;11.90;;;;;;;-1.48;73.80;99444.95;1697227;83;21151;-57
2021/03/07 03:29:30;;;;;;;20.15;12.55;;;;;;;-1.48;73.68;99435.37;1722416;83;21146;-58
2021/03/07 03:31:59;;;;;;;21.07;10.88;;;;;;;-1.48;73.55;99428.00;1722378;82;21118;-58
2021/03/07 03:34:29;;;;;;;16.12;12.03;;;;;;;-1.48;73.54;99431.91;1711229;83;22438;-60
2021/03/07 03:36:56;;;;;;;15.43;10.32;;;;;;;-1.50;73.52;99425.50;1701047;83;21089;-58
2021/03/07 03:39:26;;;;;;;15.32;10.48;;;;;;;-1.51;73.47;99429.03;1723998;82;21067;-60
2021/03/07 03:42:01;;;;;;;21.90;11.25;;;;;;;-1.50;73.41;99416.83;1724574;83;21098;-60
2021/03/07 03:44:32;;;;;;;30.50;14.70;;;;;;;-1.51;73.41;99414.67;1714911;82;21581;-60
2021/03/07 03:46:59;;;;;;;40.85;15.70;;;;;;;-1.50;73.36;99408.54;1690242;83;22329;-60
2021/03/07 03:49:55;;;;;;;27.65;12.28;;;;;;;-1.52;73.35;99397.38;1698163;83;21206;-60
2021/03/07 03:52:23;;;;;;;18.85;9.98;;;;;;;-1.50;73.28;99398.56;1726069;82;21110;-58
2021/03/07 03:55:10;;;;;;;24.40;10.50;;;;;;;-1.49;73.19;99398.95;1737451;82;20971;-58
2021/03/07 03:57:38;;;;;;;20.15;9.38;;;;;;;-1.48;72.99;99397.53;1698698;82;21121;-57
2021/03/07 04:00:12;;;;;;;17.37;10.15;;;;;;;-1.45;72.87;99384.75;1737433;82;21372;-59
2021/03/07 04:02:39;;;;;;;16.93;9.00;;;;;;;-1.45;72.68;99393.89;1715413;82;21725;-60
2021/03/07 04:05:09;;;;;;;20.82;10.13;;;;;;;-1.45;72.59;99388.21;1708442;82;21161;-57
2021/03/07 04:07:38;;;;;;;17.98;9.93;;;;;;;-1.44;72.51;99395.58;1724334;82;21057;-59
2021/03/07 04:10:07;;;;;;;19.48;11.10;;;;;;;-1.42;72.33;99388.48;1737550;82;21114;-60
2021/03/07 04:12:37;;;;;;;25.57;11.80;;;;;;;-1.40;72.26;99377.47;1737389;82;22274;-60
2021/03/07 04:15:07;;;;;;;17.50;8.93;;;;;;;-1.39;72.20;99370.87;1735890;82;21213;-58
2021/03/07 04:17:35;;;;;;;15.68;8.20;;;;;;;-1.38;72.12;99373.83;1733910;82;21132;-61
2021/03/07 04:20:05;;;;;;;18.07;9.18;;;;;;;-1.35;72.10;99375.41;1706927;82;21201;-60
2021/03/07 04:22:32;;;;;;;13.88;9.03;;;;;;;-1.33;72.05;99363.92;1737518;82;21197;-60
2021/03/07 04:25:00;;;;;;;13.10;8.05;;;;;;;-1.30;72.00;99357.67;1713108;82;21340;-60
2021/03/07 04:27:28;;;;;;;11.28;8.55;;;;;;;-1.29;71.82;99356.28;1723587;82;21054;-61
2021/03/07 04:29:55;;;;;;;14.63;8.23;;;;;;;-1.27;71.72;99362.23;1724264;82;21133;-61
2021/03/07 04:32:23;;;;;;;13.28;8.60;;;;;;;-1.23;71.71;99343.77;1708050;82;20955;-58
2021/03/07 04:34:50;;;;;;;20.32;9.38;;;;;;;-1.21;71.71;99352.33;1737403;82;21127;-60
2021/03/07 04:37:18;;;;;;;14.93;10.60;;;;;;;-1.19;71.70;99346.53;1737348;82;21372;-60
2021/03/07 04:39:46;;;;;;;17.25;10.50;;;;;;;-1.16;71.59;99347.65;1723823;82;21170;-59
2021/03/07 04:42:13;;;;;;;14.20;8.45;;;;;;;-1.16;71.56;99341.12;1735887;82;20961;-59
2021/03/07 04:44:41;;;;;;;11.70;8.40;;;;;;;-1.14;71.46;99335.33;1737429;82;21130;-61
2021/03/07 04:47:08;;;;;;;12.23;8.33;;;;;;;-1.13;71.44;99340.92;1710180;82;21144;-60
2021/03/07 04:49:38;;;;;;;12.50;8.08;;;;;;;-1.11;71.37;99333.82;1736428;82;21039;-61
2021/03/07 04:52:05;;;;;;;13.65;8.40;;;;;;;-1.09;71.28;99339.77;1720743;82;21007;-60
2021/03/07 04:54:32;;;;;;;13.85;8.30;;;;;;;-1.08;71.26;99322.72;1724725;82;21110;-58
2021/03/07 04:57:04;;;;;;;13.30;7.87;;;;;;;-1.05;71.31;99315.99;1745187;82;21011;-59
2021/03/07 04:59:32;;;;;;;12.65;8.43;;;;;;;-1.02;71.22;99315.80;1707212;82;21180;-61
2021/03/07 05:01:59;;;;;;;10.53;7.97;;;;;;;-0.99;71.01;99305.61;1739564;82;21188;-58
2021/03/07 05:04:27;;;;;;;14.23;9.05;;;;;;;-0.99;70.91;99308.23;1731831;82;21208;-58
2021/03/07 05:06:55;;;;;;;17.73;8.90;;;;;;;-0.96;70.84;99300.16;1745360;82;20931;-60
2021/03/07 05:09:22;;;;;;;17.05;8.80;;;;;;;-0.96;70.70;99301.00;1745221;82;21129;-60
2021/03/07 05:11:50;;;;;;;15.58;8.28;;;;;;;-0.96;70.65;99291.86;1728755;82;21046;-60
2021/03/07 05:14:18;;;;;;;12.80;7.45;;;;;;;-0.93;70.63;99299.96;1741988;82;21371;-58
2021/03/07 05:16:45;;;;;;;14.87;7.45;;;;;;;-0.93;70.55;99292.97;1742476;82;21074;-61
2021/03/07 05:19:13;;;;;;;14.63;8.15;;;;;;;-0.93;70.49;99287.75;1745288;82;20994;-60
2021/03/07 05:21:41;;;;;;;12.70;8.28;;;;;;;-0.92;70.50;99278.14;1729536;82;21123;-58
2021/03/07 05:24:11;;;;;;;17.02;7.83;;;;;;;-0.89;70.57;99283.16;1745310;82;21006;-58
2021/03/07 05:26:38;;;;;;;10.60;7.60;;;;;;;-0.88;70.46;99277.83;1717625;82;22325;-59
2021/03/07 05:29:06;;;;;;;12.98;7.87;;;;;;;-0.87;70.44;99266.45;1738537;82;21117;-59
2021/03/07 05:31:34;;;;;;;12.03;8.38;;;;;;;-0.85;70.48;99261.95;1739277;82;21007;-57
2021/03/07 05:34:01;;;;;;;19.17;10.53;;;;;;;-0.83;70.37;99269.20;1704192;82;21172;-58
2021/03/07 05:36:29;;;;;;;14.07;8.60;;;;;;;-0.81;70.18;99269.13;1745229;82;21117;-59
2021/03/07 05:38:56;;;;;;;14.70;7.80;;;;;;;-0.79;70.07;99261.55;1723228;82;21207;-58
2021/03/07 05:41:24;;;;;;;12.85;7.65;;;;;;;-0.77;69.96;99257.05;1712632;82;21085;-59
2021/03/07 05:43:51;;;;;;;10.58;7.65;;;;;;;-0.73;69.84;99273.36;1740445;82;21081;-61
2021/03/07 05:46:19;;;;;;;12.20;8.18;;;;;;;-0.72;69.81;99262.79;1745267;82;21125;-59
2021/03/07 05:48:46;;;;;;;28.32;13.28;;;;;;;-0.71;69.78;99255.80;1724321;82;21142;-59
2021/03/07 05:51:15;;;;;;;16.05;8.93;;;;;;;-0.68;69.76;99270.77;1733715;82;21384;-61
2021/03/07 05:53:50;;;;;;;29.48;12.55;;;;;;;-0.67;69.76;99263.31;1743017;82;21093;-58
2021/03/07 05:56:18;;;;;;;25.75;12.82;;;;;;;-0.66;69.72;99264.15;1711239;82;21131;-60
2021/03/07 05:58:45;;;;;;;19.20;10.40;;;;;;;-0.67;69.68;99267.69;1748159;81;20955;-58
2021/03/07 06:01:13;;;;;;;13.45;8.70;;;;;;;-0.67;69.86;99262.47;1673322;82;21058;-59
2021/03/07 06:03:41;;;;;;;10.90;7.15;;;;;;;-0.66;70.06;99268.91;1734614;82;21382;-59
2021/03/07 06:06:10;;;;;;;11.25;7.45;;;;;;;-0.66;69.99;99249.31;1715033;82;21030;-58
2021/03/07 06:08:38;;;;;;;10.32;7.12;;;;;;;-0.63;69.75;99254.30;1748229;82;21066;-60
2021/03/07 06:11:06;;;;;;;10.15;6.83;;;;;;;-0.59;69.58;99254.94;1743248;82;21108;-60
2021/03/07 06:13:46;;;;;;;8.55;6.83;;;;;;;-0.57;69.38;99258.27;1700085;84;21159;-58
2021/03/07 06:16:11;;;;;;;19.00;7.12;;;;;;;-0.52;69.34;99260.59;1742851;82;21202;-58
2021/03/07 06:18:44;;;;;;;10.93;7.65;;;;;;;-0.49;69.16;99266.42;1748216;82;21145;-60
2021/03/07 06:21:32;;;;;;;9.78;6.15;;;;;;;-0.47;69.03;99250.66;1748249;82;21109;-60
2021/03/07 06:24:01;;;;;;;17.67;11.12;;;;;;;-0.45;68.91;99253.52;1717637;82;21149;-59
2021/03/07 06:26:28;;;;;;;9.38;6.85;;;;;;;-0.45;68.89;99231.31;1748196;82;21169;-61
2021/03/07 06:29:08;;;;;;;8.98;6.25;;;;;;;-0.44;68.91;99240.80;1702877;82;21386;-58
2021/03/07 06:31:36;;;;;;;7.90;6.20;;;;;;;-0.41;68.81;99234.52;1709408;82;21147;-60
2021/03/07 06:34:04;;;;;;;8.28;6.40;;;;;;;-0.37;68.91;99243.38;1726857;82;21030;-60
2021/03/07 06:36:32;;;;;;;9.65;6.55;;;;;;;-0.33;68.71;99237.44;1748150;82;21155;-59
2021/03/07 06:39:05;;;;;;;10.90;5.95;;;;;;;-0.30;68.62;99239.84;1733065;82;21193;-59
2021/03/07 06:41:33;;;;;;;8.38;5.75;;;;;;;-0.27;68.54;99235.24;1729742;82;21391;-60
2021/03/07 06:44:13;;;;;;;10.72;5.50;;;;;;;-0.24;68.36;99227.19;1732115;82;21156;-59
2021/03/07 06:46:43;;;;;;;17.98;8.65;;;;;;;-0.22;68.27;99234.44;1728079;82;21153;-58
2021/03/07 06:49:27;;;;;;;11.30;7.35;;;;;;;-0.19;68.15;99231.61;1734931;82;21679;-59
2021/03/07 06:52:01;;;;;;;8.95;6.62;;;;;;;-0.18;68.11;99218.05;1737457;82;21486;-58
2021/03/07 06:54:28;;;;;;;9.45;5.97;;;;;;;-0.17;68.13;99219.27;1697710;84;21212;-59
2021/03/07 06:56:55;;;;;;;10.00;5.83;;;;;;;-0.13;68.05;99217.27;1706300;83;20978;-58
2021/03/07 06:59:23;;;;;;;8.50;6.03;;;;;;;-0.10;68.06;99211.80;1713522;82;21070;-59
2021/03/07 07:01:54;;;;;;;8.20;5.00;;;;;;;-0.07;68.10;99214.20;1732189;82;21166;-60
2021/03/07 07:04:25;;;;;;;8.58;5.58;;;;;;;-0.03;67.92;99215.17;1709654;82;21188;-60
2021/03/07 07:07:06;;;;;;;9.33;6.15;;;;;;;-0.01;67.97;99215.08;1714604;82;21378;-60
2021/03/07 07:09:35;;;;;;;9.03;5.35;;;;;;;0.04;67.97;99222.58;1712415;82;21042;-62
2021/03/07 07:12:07;;;;;;;7.47;5.05;;;;;;;0.06;67.87;99214.14;1737368;82;21212;-60
2021/03/07 07:14:40;;;;;;;9.83;5.78;;;;;;;0.09;67.93;99213.93;1733266;82;21205;-61
2021/03/07 07:17:14;;;;;;;15.60;8.70;;;;;;;0.12;67.84;99205.87;1716567;82;21174;-59
2021/03/07 07:19:52;;;;;;;10.13;6.85;;;;;;;0.16;67.86;99200.79;1804527;78;28246;-63
2021/03/07 07:22:22;;;;;;;9.80;5.85;;;;;;;0.13;67.86;99199.70;1769592;79;21036;-59
2021/03/07 07:24:49;;;;;;;10.03;5.30;;;;;;;0.17;67.88;99190.67;1793907;78;21347;-61
2021/03/07 07:27:17;;;;;;;7.15;5.20;;;;;;;0.21;67.77;99193.44;1789725;77;20994;-60
2021/03/07 07:29:45;;;;;;;6.40;5.08;;;;;;;0.23;67.67;99186.30;1777025;77;21002;-61
2021/03/07 07:32:19;;;;;;;9.65;6.05;;;;;;;0.24;67.63;99180.94;1795512;78;20945;-63
2021/03/07 07:35:03;;;;;;;7.58;5.53;;;;;;;0.25;67.42;99189.17;1781915;78;21494;-62
2021/03/07 07:37:34;;;;;;;5.65;5.10;;;;;;;0.26;67.51;99175.62;1780449;78;21377;-59
2021/03/07 07:40:01;;;;;;;7.60;5.70;;;;;;;0.29;67.38;99174.05;1782400;79;21582;-60
2021/03/07 07:42:33;;;;;;;8.28;5.25;;;;;;;0.28;67.43;99185.48;1742591;80;20942;-59
2021/03/07 07:45:17;;;;;;;11.38;7.10;;;;;;;0.29;68.10;99176.20;1777131;79;20958;-60
2021/03/07 07:47:48;;;;;;;12.95;7.85;;;;;;;0.35;67.79;99176.23;1801417;78;21005;-59
2021/03/07 07:50:33;;;;;;;7.78;6.28;;;;;;;0.38;67.58;99173.39;1779327;79;21360;-60
2021/03/07 07:53:18;;;;;;;9.18;5.50;;;;;;;0.40;67.56;99161.86;1798258;79;20935;-60
2021/03/07 07:55:52;;;;;;;6.00;4.67;;;;;;;0.42;67.51;99170.42;1777578;79;21048;-56
2021/03/07 07:58:42;;;;;;;7.17;5.87;;;;;;;0.46;67.53;99168.42;1777971;79;21489;-58
2021/03/07 08:01:15;;;;;;;9.68;6.45;;;;;;;0.48;67.43;99155.58;1776944;79;21100;-59
2021/03/07 08:03:47;;;;;;;8.65;5.37;;;;;;;0.52;67.38;99164.05;1779331;79;21382;-59
2021/03/07 08:06:31;;;;;;;8.93;5.95;;;;;;;0.55;67.43;99164.63;1777332;79;21558;-59
2021/03/07 08:09:00;;;;;;;7.97;5.58;;;;;;;0.59;67.36;99155.62;1782303;79;21130;-59
2021/03/07 08:11:29;;;;;;;8.20;5.45;;;;;;;0.62;67.18;99148.00;1780840;77;21140;-60
2021/03/07 08:13:58;;;;;;;9.13;6.50;;;;;;;0.66;67.27;99150.73;1777019;79;21503;-60
2021/03/07 08:16:38;;;;;;;6.90;5.67;;;;;;;0.69;67.12;99145.27;1777706;79;21381;-59
2021/03/07 08:19:15;;;;;;;7.42;5.30;;;;;;;0.69;67.02;99140.04;1783825;79;21172;-59
2021/03/07 08:22:04;;;;;;;10.03;5.33;;;;;;;0.70;66.97;99136.48;1776945;79;20997;-59
2021/03/07 08:24:51;;;;;;;10.98;5.95;;;;;;;0.73;66.95;99141.45;1773033;79;21022;-60
2021/03/07 08:27:38;;;;;;;6.50;4.60;;;;;;;0.75;66.89;99138.27;1784218;79;22356;-57
2021/03/07 08:30:07;;;;;;;;;;;;;;;0.75;66.83;99125.17;1782294;79;21357;-59
2021/03/07 08:32:40;;;;;;;7.85;5.00;;;;;;;0.76;66.99;99137.77;1783952;79;20136;-58
2021/03/07 08:35:20;;;;;;;9.83;6.60;;;;;;;0.79;67.21;99131.00;1780255;78;20991;-59
2021/03/07 08:38:15;;;;;;;9.65;5.72;;;;;;;0.84;67.22;99125.77;1808434;78;21122;-60
2021/03/07 08:40:56;;;;;;;10.05;6.92;;;;;;;0.87;66.92;99116.37;1731574;82;21135;-58
2021/03/07 08:43:30;;;;;;;10.25;5.35;;;;;;;0.89;66.89;99109.22;1728855;81;21316;-60
2021/03/07 08:46:08;;;;;;;7.10;4.80;;;;;;;0.90;66.74;99117.45;1778055;79;21148;-62
2021/03/07 08:48:38;;;;;;;6.20;4.85;;;;;;;0.90;66.86;99117.92;1779261;79;21211;-62
2021/03/07 08:51:07;;;;;;;8.78;5.53;;;;;;;0.88;66.91;99118.05;1777805;79;21603;-60
2021/03/07 08:53:39;;;;;;;8.05;5.35;;;;;;;0.89;67.12;99122.31;1783411;79;21626;-62
2021/03/07 08:56:07;;;;;;;6.97;5.35;;;;;;;0.90;67.12;99104.82;1787453;79;22283;-60
2021/03/07 08:58:34;;;;;;;6.35;4.97;;;;;;;0.89;67.17;99115.77;1780424;79;21162;-61
2021/03/07 09:01:02;;;;;;;7.15;5.40;;;;;;;0.89;67.39;99105.30;1783164;79;21143;-60
2021/03/07 09:03:30;;;;;;;12.15;6.60;;;;;;;0.93;67.62;99111.98;1784887;79;21128;-59
2021/03/07 09:05:58;;;;;;;8.05;6.28;;;;;;;0.96;67.52;99092.10;1782241;79;21132;-58
2021/03/07 09:08:27;;;;;;;11.05;6.65;;;;;;;0.97;67.24;99094.22;1774726;79;21282;-61
2021/03/07 09:10:57;;;;;;;6.87;5.72;;;;;;;0.98;67.47;99099.83;1775426;79;21195;-59
2021/03/07 09:13:26;;;;;;;10.28;5.15;;;;;;;1.01;67.28;99091.73;1788590;79;21053;-59
2021/03/07 09:16:03;;;;;;;10.98;6.62;;;;;;;1.02;67.16;99081.13;1737033;81;21086;-61
2021/03/07 09:18:35;;;;;;;17.77;7.67;;;;;;;1.04;67.08;99089.69;1787239;78;21653;-60
2021/03/07 09:21:07;;;;;;;23.80;8.38;;;;;;;1.04;67.04;99093.62;1785639;79;21424;-61
2021/03/07 09:23:41;;;;;;;8.70;5.33;;;;;;;1.07;67.14;99088.14;1775356;79;20993;-61
2021/03/07 09:26:15;;;;;;;12.50;4.92;;;;;;;1.10;67.11;99084.45;1772793;79;21145;-62
2021/03/07 09:28:52;;;;;;;6.72;4.80;;;;;;;1.11;66.99;99077.80;1772103;79;21148;-61
2021/03/07 09:31:26;;;;;;;5.35;4.08;;;;;;;1.14;66.95;99061.84;1775678;79;21571;-62
2021/03/07 09:33:56;;;;;;;8.15;5.30;;;;;;;1.17;66.96;99080.41;1777102;79;22270;-60
2021/03/07 09:36:25;;;;;;;7.45;4.30;;;;;;;1.19;66.70;99077.19;1774264;79;21128;-61
2021/03/07 09:38:55;;;;;;;8.60;5.47;;;;;;;1.19;66.87;99074.57;1773368;79;21519;-57
2021/03/07 09:41:35;;;;;;;9.60;5.80;;;;;;;1.23;66.96;99079.44;1772080;79;21206;-64
2021/03/07 09:44:07;;;;;;;7.92;5.55;;;;;;;1.28;67.04;99064.66;1772587;79;21148;-58
2021/03/07 09:46:34;;;;;;;7.42;6.10;;;;;;;1.31;66.93;99076.67;1784085;79;21186;-59
2021/03/07 09:49:05;;;;;;;7.10;4.33;;;;;;;1.31;66.76;99071.44;1775979;78;21203;-58
2021/03/07 09:51:37;;;;;;;6.97;5.12;;;;;;;1.32;66.83;99073.11;1771795;79;21600;-59
2021/03/07 09:54:13;;;;;;;14.23;6.17;;;;;;;1.35;66.97;99080.27;1773147;79;21156;-58
2021/03/07 09:56:40;;;;;;;11.18;5.30;;;;;;;1.40;66.79;99070.72;1777485;79;20991;-59
2021/03/07 09:59:16;;;;;;;11.53;5.70;;;;;;;1.45;66.77;99075.95;1771649;79;21368;-60
2021/03/07 10:01:59;;;;;;;9.47;4.97;;;;;;;1.49;66.57;99082.60;1772056;79;21116;-59
2021/03/07 10:04:45;;;;;;;12.53;5.00;;;;;;;1.49;66.56;99074.73;1785149;79;21053;-59
2021/03/07 10:07:19;;;;;;;5.62;5.03;;;;;;;1.50;66.78;99071.64;1774170;79;21139;-59
2021/03/07 10:10:23;;;;;;;6.05;4.85;;;;;;;1.52;66.46;99061.39;1746453;81;21574;-58
2021/03/07 10:12:56;;;;;;;6.15;4.53;;;;;;;1.50;66.26;99065.93;1786787;79;21417;-59
2021/03/07 10:15:30;;;;;;;8.40;4.58;;;;;;;1.53;66.44;99070.09;1779238;79;21193;-58
2021/03/07 10:18:03;;;;;;;6.85;5.35;;;;;;;1.56;66.30;99084.27;1792339;79;21647;-58
2021/03/07 10:20:37;;;;;;;5.40;4.90;;;;;;;1.56;66.15;99058.89;1779397;79;21600;-60
2021/03/07 10:23:05;;;;;;;17.85;8.35;;;;;;;1.57;66.22;99073.64;1786147;79;21112;-59
2021/03/07 10:25:36;;;;;;;21.80;9.23;;;;;;;1.57;66.18;99072.80;1778302;79;21388;-57
2021/03/07 10:28:09;;;;;;;11.68;6.05;;;;;;;1.55;66.31;99072.95;1789464;79;21017;-59
2021/03/07 10:30:47;;;;;;;7.78;5.37;;;;;;;1.57;66.47;99074.95;1773579;79;21132;-59
2021/03/07 10:33:26;;;;;;;7.53;5.80;;;;;;;1.58;66.36;99071.39;1773592;79;21061;-58
2021/03/07 10:36:13;;;;;;;7.25;5.22;;;;;;;1.60;66.40;99060.77;1778729;79;21531;-57
2021/03/07 10:38:48;;;;;;;6.37;5.00;;;;;;;1.59;66.50;99051.25;1783123;79;21364;-59
2021/03/07 10:41:32;;;;;;;5.75;4.62;;;;;;;1.59;66.52;99061.74;1788556;79;21049;-57
2021/03/07 10:44:03;;;;;;;6.50;4.78;;;;;;;1.59;66.46;99053.88;1791278;79;20922;-58
2021/03/07 10:46:36;;;;;;;6.87;5.12;;;;;;;1.58;66.31;99050.41;1784210;79;20934;-59
2021/03/07 10:49:09;;;;;;;12.37;5.92;;;;;;;1.60;66.48;99052.42;1770311;79;21124;-59
2021/03/07 10:51:37;;;;;;;6.47;5.58;;;;;;;1.62;66.43;99039.18;1774327;79;22532;-60
2021/03/07 10:54:05;;;;;;;8.03;6.17;;;;;;;1.66;66.67;99037.99;1773925;79;21100;-60
2021/03/07 10:56:40;;;;;;;8.30;5.90;;;;;;;1.72;66.72;99033.06;1775616;79;21210;-59
2021/03/07 10:59:06;;;;;;;9.15;7.12;;;;;;;1.77;66.01;99029.58;1776676;79;21131;-59
2021/03/07 11:01:33;;;;;;;12.80;7.65;;;;;;;1.79;66.01;99026.85;1773526;79;21570;-60
2021/03/07 11:04:01;;;;;;;10.43;5.33;;;;;;;1.81;66.08;99025.77;1774458;79;21379;-60
2021/03/07 11:06:31;;;;;;;7.30;5.47;;;;;;;1.86;65.97;99008.33;1773410;79;21025;-60
2021/03/07 11:08:58;;;;;;;11.97;5.87;;;;;;;1.85;65.34;98996.19;1773446;79;21104;-60
2021/03/07 11:11:28;;;;;;;8.83;6.35;;;;;;;1.83;65.30;99006.79;1745590;79;21127;-58
2021/03/07 11:13:56;;;;;;;6.37;5.58;;;;;;;1.82;65.35;99008.24;1741134;81;21232;-59
2021/03/07 11:16:23;;;;;;;7.17;5.78;;;;;;;1.82;65.46;99014.33;1741051;81;21198;-57
2021/03/07 11:18:51;;;;;;;6.70;6.00;;;;;;;1.82;65.37;98985.48;1726911;81;21195;-59
2021/03/07 11:21:19;;;;;;;9.48;6.22;;;;;;;1.81;65.25;98992.98;1731325;82;21179;-57
2021/03/07 11:23:46;;;;;;;8.18;5.95;;;;;;;1.83;65.49;98998.09;1736921;82;21170;-58
2021/03/07 11:26:14;;;;;;;8.83;6.03;;;;;;;1.84;65.50;98986.64;1723252;82;21132;-62
2021/03/07 11:28:42;;;;;;;7.42;6.40;;;;;;;1.86;65.59;98990.80;1717464;82;21686;-59
2021/03/07 11:31:09;;;;;;;7.47;6.33;;;;;;;1.87;65.44;98983.77;1709978;82;21234;-58
2021/03/07 11:33:38;;;;;;;11.00;6.17;;;;;;;1.85;65.34;98984.39;1717309;82;21099;-59
2021/03/07 11:36:09;;;;;;;7.37;6.22;;;;;;;1.85;65.44;98985.70;1721289;82;21267;-60
2021/03/07 11:38:36;;;;;;;8.33;6.47;;;;;;;1.84;65.54;98990.11;1694463;82;21205;-60
2021/03/07 11:41:04;;;;;;;7.08;6.30;;;;;;;1.85;65.62;98983.08;1726346;82;21384;-61
2021/03/07 11:43:31;;;;;;;7.85;6.20;;;;;;;1.86;65.66;98986.87;1723138;82;21708;-59
2021/03/07 11:45:59;;;;;;;7.25;6.15;;;;;;;1.86;65.81;98954.08;1722886;82;21151;-59